createdAt,value
2023-02-13T00:00:26.240Z,54.50
2023-02-13T00:02:53.068Z,54.50
2023-02-13T00:05:20.075Z,54.50
2023-02-13T00:07:46.895Z,54.40
2023-02-13T00:10:13.945Z,54.40
2023-02-13T00:12:40.773Z,54.50
2023-02-13T00:15:08.702Z,54.40
2023-02-13T00:17:36.486Z,54.40
2023-02-13T00:20:03.870Z,54.30
2023-02-13T00:22:30.676Z,54.90
2023-02-13T00:24:57.476Z,54.30
2023-02-13T00:27:24.272Z,54.30
2023-02-13T00:29:51.049Z,54.10
2023-02-13T00:32:17.886Z,54.20
2023-02-13T00:34:44.698Z,54.20
2023-02-13T00:37:11.589Z,54.10
2023-02-13T00:39:38.439Z,54.00
2023-02-13T00:42:05.900Z,54.00
2023-02-13T00:44:32.795Z,54.20
2023-02-13T00:46:59.574Z,54.20
2023-02-13T00:49:26.405Z,54.10
2023-02-13T00:51:53.366Z,54.10
2023-02-13T00:54:20.337Z,54.10
2023-02-13T00:56:47.172Z,54.10
2023-02-13T00:59:14.037Z,54.00
2023-02-13T01:01:41.401Z,54.10
2023-02-13T01:04:08.292Z,54.00
2023-02-13T01:06:35.107Z,54.00
2023-02-13T01:09:06.454Z,53.90
2023-02-13T01:11:35.552Z,54.00
2023-02-13T01:14:02.422Z,53.80
2023-02-13T01:16:29.255Z,53.80
2023-02-13T01:18:56.057Z,53.80
2023-02-13T01:21:26.325Z,53.80
2023-02-13T01:23:53.257Z,53.70
2023-02-13T01:26:23.767Z,53.80
2023-02-13T01:28:55.063Z,53.70
2023-02-13T01:31:22.363Z,53.70
2023-02-13T01:33:49.410Z,53.60
2023-02-13T01:36:18.746Z,53.80
2023-02-13T01:38:45.499Z,53.60
2023-02-13T01:41:12.340Z,53.60
2023-02-13T01:43:59.940Z,53.60
2023-02-13T01:46:37.224Z,53.60
2023-02-13T01:49:12.747Z,53.60
2023-02-13T01:51:43.145Z,53.50
2023-02-13T01:54:15.178Z,53.50
2023-02-13T01:56:46.743Z,53.60
2023-02-13T01:59:18.591Z,53.40
2023-02-13T02:01:45.908Z,53.50
2023-02-13T02:04:22.706Z,53.40
2023-02-13T02:06:53.826Z,53.20
2023-02-13T02:09:25.247Z,53.90
2023-02-13T02:12:09.263Z,53.30
2023-02-13T02:14:36.357Z,53.20
2023-02-13T02:17:03.322Z,53.20
2023-02-13T02:20:08.489Z,53.10
2023-02-13T02:23:06.235Z,53.20
2023-02-13T02:25:51.768Z,53.10
2023-02-13T02:28:33.738Z,53.10
2023-02-13T02:31:03.480Z,53.10
2023-02-13T02:33:33.048Z,53.10
2023-02-13T02:36:13.249Z,53.00
2023-02-13T02:38:55.166Z,53.00
2023-02-13T02:41:43.092Z,53.00
2023-02-13T02:44:28.552Z,53.00
2023-02-13T02:47:23.000Z,53.10
2023-02-13T02:50:06.214Z,53.10
2023-02-13T02:52:46.425Z,53.00
2023-02-13T02:55:28.630Z,53.00
2023-02-13T02:58:49.307Z,53.00
2023-02-13T03:01:58.481Z,53.00
2023-02-13T03:04:57.661Z,52.90
2023-02-13T03:07:24.625Z,52.90
2023-02-13T03:10:17.249Z,53.00
2023-02-13T03:13:23.145Z,52.80
2023-02-13T03:16:16.019Z,52.90
2023-02-13T03:19:05.590Z,52.90
2023-02-13T03:22:02.688Z,52.90
2023-02-13T03:25:03.219Z,52.90
2023-02-13T03:28:18.128Z,52.80
2023-02-13T03:31:02.805Z,52.90
2023-02-13T03:33:48.098Z,52.90
2023-02-13T03:36:52.132Z,52.80
2023-02-13T03:39:23.881Z,52.90
2023-02-13T03:42:12.470Z,52.90
2023-02-13T03:45:57.502Z,52.90
2023-02-13T03:48:53.645Z,52.90
2023-02-13T03:51:39.349Z,52.90
2023-02-13T03:54:21.679Z,52.90
2023-02-13T03:57:10.945Z,53.00
2023-02-13T03:59:38.134Z,53.00
2023-02-13T04:02:11.386Z,53.00
2023-02-13T04:04:46.772Z,52.90
2023-02-13T04:07:29.692Z,52.90
2023-02-13T04:10:05.086Z,53.00
2023-02-13T04:12:43.857Z,52.90
2023-02-13T04:15:13.715Z,53.00
2023-02-13T04:17:51.776Z,53.00
2023-02-13T04:20:18.720Z,52.90
2023-02-13T04:22:47.567Z,53.00
2023-02-13T04:25:16.995Z,52.90
2023-02-13T04:27:43.834Z,53.00
2023-02-13T04:30:11.480Z,52.90
2023-02-13T04:32:38.450Z,52.80
2023-02-13T04:35:05.684Z,52.80
2023-02-13T04:37:32.494Z,52.80
2023-02-13T04:39:59.297Z,52.80
2023-02-13T04:42:26.123Z,52.90
2023-02-13T04:44:52.909Z,52.80
2023-02-13T04:47:19.719Z,52.80
2023-02-13T04:49:46.521Z,53.30
2023-02-13T04:52:15.296Z,52.80
2023-02-13T04:54:44.482Z,52.70
2023-02-13T04:57:11.345Z,52.80
2023-02-13T04:59:38.137Z,52.90
2023-02-13T05:02:04.986Z,52.70
2023-02-13T05:04:31.809Z,52.70
2023-02-13T05:06:58.693Z,52.70
2023-02-13T05:09:25.538Z,52.70
2023-02-13T05:11:53.356Z,52.70
2023-02-13T05:14:20.233Z,52.80
2023-02-13T05:16:47.788Z,52.60
2023-02-13T05:19:14.632Z,52.60
2023-02-13T05:22:00.104Z,52.60
2023-02-13T05:24:27.004Z,52.50
2023-02-13T05:26:53.876Z,52.50
2023-02-13T05:29:22.775Z,52.60
2023-02-13T05:31:55.205Z,52.60
2023-02-13T05:34:23.987Z,52.60
2023-02-13T05:36:51.328Z,52.60
2023-02-13T05:39:18.421Z,52.60
2023-02-13T05:41:46.629Z,52.60
2023-02-13T05:44:13.742Z,52.60
2023-02-13T05:46:41.610Z,52.50
2023-02-13T05:49:10.081Z,52.50
2023-02-13T05:51:39.543Z,52.80
2023-02-13T05:54:06.388Z,52.60
2023-02-13T05:56:33.209Z,52.60
2023-02-13T05:59:00.017Z,52.70
2023-02-13T06:01:26.869Z,52.60
2023-02-13T06:03:53.844Z,52.70
2023-02-13T06:06:21.439Z,52.60
2023-02-13T06:08:48.251Z,52.70
2023-02-13T06:11:15.030Z,52.80
2023-02-13T06:13:41.861Z,53.20
2023-02-13T06:16:12.705Z,53.40
2023-02-13T06:18:42.681Z,53.30
2023-02-13T06:21:11.656Z,53.40
2023-02-13T06:23:38.454Z,53.40
2023-02-13T06:26:09.516Z,53.20
2023-02-13T06:28:36.391Z,52.80
2023-02-13T06:31:03.323Z,52.50
2023-02-13T06:33:30.342Z,52.60
2023-02-13T06:35:57.162Z,52.40
2023-02-13T06:38:24.422Z,52.40
2023-02-13T06:40:51.294Z,51.70
2023-02-13T06:43:20.793Z,52.00
2023-02-13T06:45:47.564Z,51.90
2023-02-13T06:48:14.741Z,51.70
2023-02-13T06:50:43.963Z,51.60
2023-02-13T06:53:10.781Z,51.50
2023-02-13T06:55:39.501Z,50.30
2023-02-13T06:58:06.807Z,49.00
2023-02-13T07:00:33.763Z,49.20
